createdAt,value
2018-12-27T21:03:35.644Z,23.80
2018-12-27T21:06:04.008Z,24.10
2018-12-27T21:08:32.431Z,23.80
2018-12-27T21:11:00.846Z,23.35
2018-12-27T21:13:29.265Z,24.18
2018-12-27T21:15:57.562Z,25.35
2018-12-27T21:18:26.038Z,25.57
2018-12-27T21:20:54.337Z,26.52
2018-12-27T21:23:22.667Z,24.15
2018-12-27T21:25:50.971Z,24.98
2018-12-27T21:28:19.304Z,25.77
2018-12-27T21:30:47.596Z,26.12
2018-12-27T21:33:15.922Z,26.68
2018-12-27T21:35:44.219Z,26.52
2018-12-27T21:38:12.543Z,24.40
2018-12-27T21:40:40.842Z,26.70
2018-12-27T21:43:09.180Z,26.05
2018-12-27T21:45:37.474Z,26.15
2018-12-27T21:48:05.795Z,26.40
2018-12-27T21:50:34.196Z,26.50
2018-12-27T21:53:02.528Z,25.52
2018-12-27T21:55:30.847Z,25.32
2018-12-27T21:57:59.259Z,25.55
2018-12-27T22:00:27.616Z,26.40
2018-12-27T22:02:55.943Z,26.02
2018-12-27T22:05:24.249Z,26.33
2018-12-27T22:07:52.575Z,27.87
2018-12-27T22:10:21.282Z,27.48
2018-12-27T22:12:49.659Z,28.65
2018-12-27T22:15:17.956Z,32.53
2018-12-27T22:17:46.294Z,27.60
2018-12-27T22:20:14.591Z,28.85
2018-12-27T22:22:42.927Z,26.97
2018-12-27T22:25:11.227Z,28.60
2018-12-27T22:27:39.560Z,28.35
2018-12-27T22:30:08.427Z,27.85
2018-12-27T22:32:36.764Z,29.60
2018-12-27T22:35:05.132Z,28.73
2018-12-27T22:37:33.462Z,28.47
2018-12-27T22:40:02.145Z,29.63
2018-12-27T22:42:30.824Z,27.87
2018-12-27T22:44:59.394Z,29.15
2018-12-27T22:47:27.780Z,28.60
2018-12-27T22:49:56.072Z,28.77
2018-12-27T22:52:24.372Z,27.05
2018-12-27T22:54:52.701Z,29.70
2018-12-27T22:57:21.244Z,29.55
2018-12-27T22:59:50.060Z,29.15
2018-12-27T23:02:18.360Z,28.85
2018-12-27T23:04:46.683Z,27.35
2018-12-27T23:07:14.988Z,27.85
2018-12-27T23:09:43.313Z,28.70
2018-12-27T23:12:11.683Z,29.63
2018-12-27T23:14:40.263Z,29.02
2018-12-27T23:17:08.720Z,27.98
2018-12-27T23:19:37.131Z,27.17
2018-12-27T23:22:05.429Z,26.70
2018-12-27T23:24:34.762Z,25.77
2018-12-27T23:27:03.095Z,26.95
2018-12-27T23:29:31.863Z,26.05
2018-12-27T23:32:01.388Z,27.65
2018-12-27T23:34:30.969Z,25.97
2018-12-27T23:36:59.741Z,25.23
2018-12-27T23:39:28.116Z,27.90
2018-12-27T23:41:56.436Z,27.75
2018-12-27T23:44:27.792Z,23.95
2018-12-27T23:46:56.135Z,24.87
2018-12-27T23:49:24.456Z,27.22
2018-12-27T23:51:52.762Z,25.05
2018-12-27T23:54:24.660Z,24.47
2018-12-27T23:56:53.011Z,25.50
2018-12-27T23:59:21.332Z,24.92
